createdAt,value
2018-01-07T00:00:03.321Z,6.53
2018-01-07T00:02:31.020Z,6.90
2018-01-07T00:04:58.566Z,6.60
2018-01-07T00:07:26.234Z,6.80
2018-01-07T00:09:54.233Z,6.83
2018-01-07T00:12:21.878Z,7.03
2018-01-07T00:14:49.760Z,7.53
2018-01-07T00:17:17.794Z,7.30
2018-01-07T00:19:46.172Z,7.60
2018-01-07T00:22:14.712Z,7.93
2018-01-07T00:24:42.400Z,8.97
2018-01-07T00:27:10.115Z,7.70
2018-01-07T00:29:37.882Z,7.30
2018-01-07T00:32:06.379Z,7.40
2018-01-07T00:34:34.397Z,8.97
2018-01-07T00:37:03.168Z,7.97
2018-01-07T00:39:30.949Z,8.60
2018-01-07T00:41:59.574Z,8.50
2018-01-07T00:44:27.338Z,8.30
2018-01-07T00:46:55.152Z,7.37
2018-01-07T00:49:22.912Z,7.70
2018-01-07T00:51:50.594Z,8.20
2018-01-07T00:54:18.309Z,8.60
2018-01-07T00:56:45.963Z,6.50
2018-01-07T00:59:13.763Z,8.60
2018-01-07T01:01:41.521Z,4.60
2018-01-07T01:04:09.275Z,8.40
2018-01-07T01:06:37.011Z,8.50
2018-01-07T01:09:04.798Z,7.80
2018-01-07T01:11:32.537Z,8.77
2018-01-07T01:14:00.265Z,8.93
2018-01-07T01:16:28.246Z,9.00
2018-01-07T01:18:55.907Z,9.30
2018-01-07T01:21:24.428Z,8.83
2018-01-07T01:23:52.214Z,9.80
2018-01-07T01:26:19.942Z,7.80
2018-01-07T01:28:47.709Z,9.10
2018-01-07T01:31:15.331Z,9.20
2018-01-07T01:33:43.095Z,9.20
2018-01-07T01:36:10.810Z,8.43
2018-01-07T01:38:38.688Z,7.83
2018-01-07T01:41:06.330Z,8.17
2018-01-07T01:43:34.055Z,8.17
2018-01-07T01:46:02.096Z,8.17
2018-01-07T01:48:29.970Z,8.20
2018-01-07T01:50:57.687Z,8.30
2018-01-07T01:53:26.321Z,7.90
2018-01-07T01:55:57.733Z,7.70
2018-01-07T01:58:25.825Z,9.40
2018-01-07T02:00:53.690Z,8.40
2018-01-07T02:03:21.317Z,8.53
2018-01-07T02:05:49.953Z,8.60
2018-01-07T02:08:17.597Z,8.57
2018-01-07T02:10:45.362Z,9.70
2018-01-07T02:13:12.924Z,8.33
2018-01-07T02:15:40.614Z,8.20
2018-01-07T02:18:08.258Z,10.03
2018-01-07T02:20:35.982Z,8.93
2018-01-07T02:23:04.249Z,9.43
2018-01-07T02:25:33.047Z,7.60
2018-01-07T02:28:00.743Z,9.47
2018-01-07T02:30:28.624Z,10.20
2018-01-07T02:32:56.569Z,9.37
2018-01-07T02:35:24.213Z,8.87
2018-01-07T02:37:52.695Z,8.07
2018-01-07T02:40:21.115Z,8.70
2018-01-07T02:42:48.786Z,7.43
2018-01-07T02:45:16.481Z,8.40
2018-01-07T02:47:44.516Z,9.43
2018-01-07T02:50:12.219Z,8.70
2018-01-07T02:52:40.227Z,9.33
2018-01-07T02:55:07.954Z,7.47
2018-01-07T02:57:35.739Z,9.63
2018-01-07T03:00:04.480Z,8.03
2018-01-07T03:02:32.140Z,6.70
2018-01-07T03:04:59.809Z,8.27
2018-01-07T03:07:27.371Z,8.77
2018-01-07T03:09:56.598Z,8.30
2018-01-07T03:12:26.006Z,6.87
2018-01-07T03:14:54.595Z,8.20
2018-01-07T03:17:23.093Z,8.97
2018-01-07T03:19:50.997Z,9.30
2018-01-07T03:22:18.958Z,8.37
2018-01-07T03:24:46.822Z,9.13
2018-01-07T03:27:14.573Z,7.80
2018-01-07T03:29:42.422Z,8.50
2018-01-07T03:32:10.949Z,9.20
2018-01-07T03:34:38.696Z,9.80
2018-01-07T03:37:06.411Z,9.93
2018-01-07T03:39:34.207Z,8.77
2018-01-07T03:42:01.930Z,8.20
2018-01-07T03:44:29.693Z,8.57
2018-01-07T03:46:57.350Z,8.27
2018-01-07T03:49:25.047Z,8.87
2018-01-07T03:51:52.717Z,8.93
2018-01-07T03:54:20.356Z,7.73
2018-01-07T03:56:48.075Z,6.53
2018-01-07T03:59:15.818Z,6.73
2018-01-07T04:01:43.518Z,7.73
2018-01-07T04:04:12.123Z,8.20
2018-01-07T04:06:40.962Z,8.20
2018-01-07T04:09:09.037Z,8.70
2018-01-07T04:11:36.882Z,8.20
2018-01-07T04:14:04.575Z,8.60
2018-01-07T04:16:32.227Z,8.67
2018-01-07T04:19:00.211Z,7.00
2018-01-07T04:21:27.889Z,9.37
2018-01-07T04:23:55.797Z,8.93
2018-01-07T04:26:24.190Z,9.30
2018-01-07T04:28:52.581Z,8.73
2018-01-07T04:31:20.535Z,8.50
2018-01-07T04:33:48.918Z,6.70
2018-01-07T04:36:16.696Z,8.87
2018-01-07T04:38:44.371Z,7.90
2018-01-07T04:41:12.058Z,6.77
2018-01-07T04:43:39.711Z,8.13
2018-01-07T04:46:07.384Z,8.40
2018-01-07T04:48:34.865Z,8.80
2018-01-07T04:51:02.335Z,7.63
2018-01-07T04:53:29.996Z,7.53
2018-01-07T04:55:57.794Z,8.37
2018-01-07T04:58:25.734Z,6.77
2018-01-07T05:00:53.488Z,5.83
2018-01-07T05:03:21.090Z,7.70
2018-01-07T05:05:48.695Z,9.00
2018-01-07T05:08:16.638Z,8.53
2018-01-07T05:10:44.216Z,5.97
2018-01-07T05:13:12.019Z,6.53
2018-01-07T05:15:39.802Z,7.20
2018-01-07T05:18:08.258Z,8.40
2018-01-07T05:20:36.330Z,7.53
2018-01-07T05:23:04.767Z,7.83
2018-01-07T05:25:32.535Z,7.30
2018-01-07T05:28:00.226Z,7.10
2018-01-07T05:30:28.156Z,7.10
2018-01-07T05:32:55.937Z,6.93
2018-01-07T05:35:23.606Z,7.40
2018-01-07T05:37:51.267Z,7.50
2018-01-07T05:40:18.865Z,7.73
2018-01-07T05:42:46.589Z,5.50
2018-01-07T05:45:14.433Z,6.23
2018-01-07T05:47:42.205Z,6.63
2018-01-07T05:50:09.926Z,7.63
2018-01-07T05:52:37.764Z,6.30
2018-01-07T05:55:05.751Z,6.87
2018-01-07T05:57:33.481Z,7.37
2018-01-07T06:00:01.365Z,7.30
2018-01-07T06:02:29.204Z,8.13
2018-01-07T06:04:56.794Z,4.53
2018-01-07T06:07:24.922Z,6.80
2018-01-07T06:09:52.994Z,7.57
2018-01-07T06:12:20.680Z,7.70
2018-01-07T06:14:48.342Z,6.07
2018-01-07T06:17:16.148Z,7.23
2018-01-07T06:19:43.753Z,6.87
2018-01-07T06:22:11.470Z,6.93
2018-01-07T06:24:39.248Z,5.97
2018-01-07T06:27:08.395Z,7.17
2018-01-07T06:29:36.210Z,6.97
2018-01-07T06:32:04.258Z,6.43
2018-01-07T06:34:31.952Z,6.27
2018-01-07T06:37:00.414Z,7.50
2018-01-07T06:39:28.539Z,7.40
2018-01-07T06:41:56.103Z,7.40
2018-01-07T06:44:23.852Z,6.40
2018-01-07T06:46:51.472Z,6.30
2018-01-07T06:49:19.287Z,5.60
2018-01-07T06:51:47.081Z,6.43
2018-01-07T06:54:14.878Z,6.23
2018-01-07T06:56:42.651Z,7.47
2018-01-07T06:59:10.501Z,7.00
2018-01-07T07:01:38.122Z,4.70
2018-01-07T07:04:06.120Z,5.50
2018-01-07T07:06:33.744Z,5.60
2018-01-07T07:09:01.446Z,6.87
2018-01-07T07:11:29.233Z,6.77
2018-01-07T07:13:57.181Z,6.10
2018-01-07T07:16:24.877Z,5.47
2018-01-07T07:18:52.565Z,6.17
2018-01-07T07:21:20.236Z,5.47
2018-01-07T07:23:47.895Z,4.30
2018-01-07T07:26:15.561Z,6.13
2018-01-07T07:28:44.017Z,5.80
2018-01-07T07:31:12.450Z,6.23
2018-01-07T07:33:40.186Z,5.97
2018-01-07T07:36:07.943Z,5.13
2018-01-07T07:38:36.636Z,4.93
2018-01-07T07:41:04.332Z,4.93
2018-01-07T07:43:31.972Z,4.70
2018-01-07T07:46:02.340Z,5.07
2018-01-07T07:48:30.282Z,4.17
2018-01-07T07:50:57.939Z,4.40
2018-01-07T07:53:25.781Z,3.70
2018-01-07T07:55:53.542Z,3.53
2018-01-07T07:58:22.561Z,3.40
2018-01-07T08:00:50.308Z,3.70
2018-01-07T08:03:17.897Z,3.80
2018-01-07T08:05:45.886Z,3.43
2018-01-07T08:08:13.943Z,4.03
2018-01-07T08:10:41.628Z,4.47
2018-01-07T08:13:09.340Z,3.50
2018-01-07T08:15:37.090Z,3.40
2018-01-07T08:18:05.740Z,3.40
2018-01-07T08:20:33.560Z,3.20
2018-01-07T08:23:01.263Z,3.23
2018-01-07T08:25:29.189Z,3.57
2018-01-07T08:27:57.006Z,2.80
2018-01-07T08:30:24.773Z,3.60
2018-01-07T08:32:53.019Z,3.67
2018-01-07T08:35:20.927Z,3.70
2018-01-07T08:37:48.798Z,3.90
2018-01-07T08:40:16.659Z,3.30
2018-01-07T08:42:44.525Z,3.40
2018-01-07T08:45:12.144Z,4.07
2018-01-07T08:47:39.908Z,2.33
2018-01-07T08:50:07.608Z,3.03
2018-01-07T08:52:35.297Z,3.33
2018-01-07T08:55:03.089Z,2.67
2018-01-07T08:57:30.903Z,3.23
2018-01-07T08:59:58.526Z,2.90
2018-01-07T09:02:26.596Z,3.17
2018-01-07T09:04:54.220Z,2.30
2018-01-07T09:07:21.900Z,2.47
2018-01-07T09:09:50.575Z,2.53
2018-01-07T09:12:18.267Z,2.47
2018-01-07T09:14:46.218Z,2.90
2018-01-07T09:17:14.583Z,2.37
2018-01-07T09:19:42.218Z,2.23
2018-01-07T09:22:09.950Z,2.80
2018-01-07T09:24:37.832Z,3.07
2018-01-07T09:27:05.491Z,2.70
2018-01-07T09:29:33.223Z,3.00
2018-01-07T09:32:01.568Z,2.73
2018-01-07T09:34:29.573Z,3.10
2018-01-07T09:36:58.083Z,2.80
2018-01-07T09:39:26.005Z,1.60
2018-01-07T09:41:53.823Z,2.90
2018-01-07T09:44:21.803Z,3.00
2018-01-07T09:46:49.524Z,2.37
2018-01-07T09:49:18.229Z,2.10
2018-01-07T09:51:46.665Z,2.07
2018-01-07T09:54:14.565Z,2.40
2018-01-07T09:56:43.122Z,2.20
2018-01-07T09:59:10.849Z,2.73
2018-01-07T10:01:39.062Z,2.80
2018-01-07T10:04:06.870Z,3.10
2018-01-07T10:06:34.661Z,2.33
2018-01-07T10:09:02.237Z,2.77
2018-01-07T10:11:29.915Z,2.80
2018-01-07T10:13:57.633Z,1.70
2018-01-07T10:16:25.506Z,1.70
2018-01-07T10:18:53.246Z,2.07
2018-01-07T10:21:21.938Z,2.40
2018-01-07T10:23:50.477Z,1.90
2018-01-07T10:26:18.873Z,2.10
2018-01-07T10:28:46.665Z,2.10
2018-01-07T10:31:15.094Z,1.50
2018-01-07T10:33:42.804Z,2.00
2018-01-07T10:36:11.319Z,2.13
2018-01-07T10:38:38.965Z,1.93
2018-01-07T10:41:07.709Z,2.07
2018-01-07T10:43:35.726Z,1.87
2018-01-07T10:46:03.594Z,2.20
2018-01-07T10:48:31.272Z,2.67
2018-01-07T10:50:59.121Z,2.17
2018-01-07T10:53:27.627Z,2.30
2018-01-07T10:55:55.308Z,2.40
2018-01-07T10:58:23.014Z,2.00
2018-01-07T11:00:57.100Z,2.10
2018-01-07T11:03:24.927Z,1.50
2018-01-07T11:05:52.862Z,2.30
2018-01-07T11:08:20.695Z,2.30
2018-01-07T11:10:48.327Z,2.30
2018-01-07T11:13:16.057Z,2.27
2018-01-07T11:15:43.877Z,2.27
2018-01-07T11:18:11.492Z,1.80
2018-01-07T11:20:40.089Z,2.23
2018-01-07T11:23:07.868Z,1.53
2018-01-07T11:25:35.496Z,1.40
2018-01-07T11:28:03.998Z,1.63
2018-01-07T11:30:31.809Z,1.53
2018-01-07T11:32:59.467Z,2.40
2018-01-07T11:35:27.110Z,1.80
2018-01-07T11:37:54.781Z,1.70
2018-01-07T11:40:23.116Z,1.40
2018-01-07T11:42:51.556Z,1.67
2018-01-07T11:45:19.231Z,1.50
2018-01-07T11:47:47.013Z,1.73
2018-01-07T11:50:14.853Z,1.67
2018-01-07T11:52:42.552Z,1.60
2018-01-07T11:55:10.831Z,2.40
2018-01-07T11:57:38.583Z,1.50
2018-01-07T12:00:06.254Z,2.17
2018-01-07T12:02:34.766Z,2.30
2018-01-07T12:05:02.382Z,2.53
2018-01-07T12:07:30.126Z,1.87
2018-01-07T12:09:57.829Z,2.20
2018-01-07T12:12:25.603Z,2.50
2018-01-07T12:14:54.056Z,1.60
2018-01-07T12:17:22.413Z,2.57
2018-01-07T12:19:50.127Z,2.00
2018-01-07T12:22:17.955Z,1.77
2018-01-07T12:24:45.610Z,1.57
2018-01-07T12:27:13.394Z,2.33
2018-01-07T12:29:41.011Z,2.40
2018-01-07T12:32:08.852Z,2.10
2018-01-07T12:34:36.780Z,2.37
2018-01-07T12:37:04.658Z,1.97
2018-01-07T12:39:32.424Z,2.20
2018-01-07T12:42:00.097Z,1.97
2018-01-07T12:44:28.439Z,2.30
2018-01-07T12:46:55.993Z,1.97
2018-01-07T12:49:23.990Z,2.70
2018-01-07T12:51:51.677Z,1.90
2018-01-07T12:54:20.496Z,2.10
2018-01-07T12:56:48.187Z,2.33
2018-01-07T12:59:16.568Z,2.80
2018-01-07T13:01:44.212Z,2.33
2018-01-07T13:04:12.273Z,1.53
2018-01-07T13:06:40.000Z,1.67
2018-01-07T13:09:07.664Z,3.00
2018-01-07T13:11:36.811Z,2.40
2018-01-07T13:14:04.487Z,2.67
2018-01-07T13:16:32.140Z,1.20
2018-01-07T13:18:59.831Z,2.10
2018-01-07T13:21:27.621Z,1.73
2018-01-07T13:23:55.483Z,2.80
2018-01-07T13:26:23.948Z,3.00
2018-01-07T13:28:51.752Z,2.37
2018-01-07T13:31:19.490Z,2.50
2018-01-07T13:33:47.325Z,3.37
2018-01-07T13:36:15.051Z,2.23
2018-01-07T13:38:42.755Z,3.10
2018-01-07T13:41:10.451Z,3.00
2018-01-07T13:43:39.000Z,2.80
2018-01-07T13:46:06.651Z,3.53
2018-01-07T13:48:34.365Z,2.60
2018-01-07T13:51:02.765Z,2.60
2018-01-07T13:53:30.461Z,1.93
2018-01-07T13:55:58.855Z,2.33
2018-01-07T13:58:26.624Z,3.00
2018-01-07T14:00:54.412Z,2.87
2018-01-07T14:03:22.807Z,2.00
2018-01-07T14:05:51.406Z,3.67
2018-01-07T14:08:19.664Z,2.57
2018-01-07T14:10:48.064Z,3.20
2018-01-07T14:13:15.764Z,3.37
2018-01-07T14:15:43.527Z,3.60
2018-01-07T14:18:11.649Z,3.37
2018-01-07T14:20:40.089Z,3.60
2018-01-07T14:23:08.556Z,3.30
2018-01-07T14:25:36.359Z,3.37
2018-01-07T14:28:04.448Z,2.97
2018-01-07T14:30:32.908Z,3.00
2018-01-07T14:33:00.620Z,3.30
2018-01-07T14:35:28.374Z,2.60
2018-01-07T14:37:56.926Z,2.60
2018-01-07T14:40:24.565Z,3.30
2018-01-07T14:42:52.344Z,3.50
2018-01-07T14:45:20.044Z,2.90
2018-01-07T14:47:48.605Z,3.10
2018-01-07T14:50:16.328Z,3.60
2018-01-07T14:52:44.066Z,2.90
2018-01-07T14:55:11.833Z,3.50
2018-01-07T14:57:39.562Z,2.70
2018-01-07T15:00:07.602Z,3.40
2018-01-07T15:02:35.230Z,3.60
2018-01-07T15:05:02.982Z,3.23
2018-01-07T15:07:30.625Z,3.03
2018-01-07T15:09:59.333Z,2.20
2018-01-07T15:12:27.865Z,3.77
2018-01-07T15:14:55.674Z,3.13
2018-01-07T15:17:23.338Z,3.00
2018-01-07T15:19:51.776Z,2.83
2018-01-07T15:22:19.637Z,2.27
2018-01-07T15:24:47.336Z,3.13
2018-01-07T15:27:16.269Z,3.23
2018-01-07T15:29:44.103Z,2.73
2018-01-07T15:32:12.577Z,3.50
2018-01-07T15:34:41.306Z,2.83
2018-01-07T15:37:08.947Z,3.70
2018-01-07T15:39:38.572Z,3.23
2018-01-07T15:42:06.507Z,2.00
2018-01-07T15:44:35.036Z,3.67
2018-01-07T15:47:02.790Z,3.47
2018-01-07T15:49:30.591Z,3.40
2018-01-07T15:51:58.385Z,3.30
2018-01-07T15:54:26.634Z,3.20
2018-01-07T15:56:54.468Z,3.50
2018-01-07T15:59:22.261Z,3.97
2018-01-07T16:01:49.903Z,2.70
2018-01-07T16:04:17.861Z,3.40
2018-01-07T16:06:45.567Z,4.00
2018-01-07T16:09:13.447Z,3.47
2018-01-07T16:11:41.172Z,3.33
2018-01-07T16:14:09.158Z,4.07
2018-01-07T16:16:36.882Z,2.70
2018-01-07T16:19:05.388Z,3.13
2018-01-07T16:21:33.250Z,3.47
2018-01-07T16:24:00.845Z,3.83
2018-01-07T16:26:28.709Z,2.73
2018-01-07T16:28:56.337Z,2.80
2018-01-07T16:31:24.011Z,2.83
2018-01-07T16:33:51.664Z,3.43
2018-01-07T16:36:19.411Z,3.20
2018-01-07T16:38:47.135Z,3.17
2018-01-07T16:41:14.928Z,4.03
2018-01-07T16:43:43.303Z,3.80
2018-01-07T16:46:11.903Z,4.40
2018-01-07T16:48:39.580Z,3.03
2018-01-07T16:51:07.126Z,3.93
2018-01-07T16:53:34.937Z,3.80
2018-01-07T16:56:02.743Z,3.43
2018-01-07T16:58:31.340Z,3.63
2018-01-07T17:00:59.056Z,4.00
2018-01-07T17:03:26.789Z,3.77
2018-01-07T17:05:54.565Z,3.80
2018-01-07T17:08:22.401Z,3.17
2018-01-07T17:10:50.019Z,3.90
2018-01-07T17:13:17.608Z,3.10
2018-01-07T17:15:46.476Z,3.03
2018-01-07T17:18:14.124Z,3.33
2018-01-07T17:20:41.817Z,3.37
2018-01-07T17:23:09.574Z,1.90
2018-01-07T17:25:37.361Z,3.50
2018-01-07T17:28:05.854Z,3.57
2018-01-07T17:30:33.626Z,2.83
2018-01-07T17:33:01.642Z,2.93
2018-01-07T17:35:29.489Z,3.90
2018-01-07T17:37:57.050Z,3.00
2018-01-07T17:40:25.166Z,3.63
2018-01-07T17:42:52.785Z,2.73
2018-01-07T17:45:20.566Z,4.47
2018-01-07T17:47:48.398Z,3.73
2018-01-07T17:50:16.128Z,2.93
2018-01-07T17:52:44.750Z,3.23
2018-01-07T17:55:12.558Z,2.93
2018-01-07T17:57:40.204Z,2.90
2018-01-07T18:00:07.971Z,3.40
2018-01-07T18:02:35.722Z,2.97
2018-01-07T18:05:04.098Z,3.13
2018-01-07T18:07:31.999Z,2.80
2018-01-07T18:09:59.744Z,3.17
2018-01-07T18:12:27.424Z,2.93
2018-01-07T18:14:55.098Z,2.93
2018-01-07T18:17:22.799Z,2.70
2018-01-07T18:19:51.874Z,3.20
2018-01-07T18:22:19.512Z,2.20
2018-01-07T18:24:47.242Z,3.37
2018-01-07T18:27:14.946Z,2.47
2018-01-07T18:29:42.705Z,2.30
2018-01-07T18:32:10.325Z,2.50
2018-01-07T18:34:38.107Z,3.00
2018-01-07T18:37:05.984Z,1.97
2018-01-07T18:39:33.735Z,2.17
2018-01-07T18:42:01.416Z,2.60
2018-01-07T18:44:29.172Z,2.30
2018-01-07T18:46:56.844Z,2.70
2018-01-07T18:49:24.562Z,1.67
2018-01-07T18:51:53.322Z,1.43
2018-01-07T18:54:21.636Z,2.20
2018-01-07T18:56:49.398Z,2.30
2018-01-07T18:59:17.017Z,1.70
2018-01-07T19:01:44.867Z,1.07
2018-01-07T19:04:12.523Z,2.50
2018-01-07T19:06:41.109Z,2.37
2018-01-07T19:09:08.918Z,2.17
2018-01-07T19:11:37.380Z,1.80
2018-01-07T19:14:05.068Z,2.17
2018-01-07T19:16:33.488Z,1.43
2018-01-07T19:19:01.533Z,1.97
2018-01-07T19:21:29.230Z,1.83
2018-01-07T19:23:57.539Z,1.23
2018-01-07T19:26:25.396Z,1.73
2018-01-07T19:28:53.072Z,1.70
2018-01-07T19:31:20.939Z,1.60
2018-01-07T19:33:49.360Z,1.50
2018-01-07T19:36:17.128Z,2.23
2018-01-07T19:38:44.881Z,1.40
2018-01-07T19:41:12.700Z,1.90
2018-01-07T19:43:40.476Z,1.50
2018-01-07T19:46:08.269Z,1.87
2018-01-07T19:48:36.012Z,1.90
2018-01-07T19:51:04.797Z,2.50
2018-01-07T19:53:32.812Z,2.00
2018-01-07T19:56:00.469Z,1.20
2018-01-07T19:58:28.262Z,1.90
2018-01-07T20:00:55.945Z,2.60
2018-01-07T20:03:23.853Z,2.20
2018-01-07T20:05:52.169Z,2.17
2018-01-07T20:08:19.924Z,2.10
2018-01-07T20:10:47.528Z,2.03
2018-01-07T20:13:15.542Z,2.23
2018-01-07T20:15:43.138Z,1.43
2018-01-07T20:18:10.677Z,2.03
2018-01-07T20:20:38.709Z,2.20
2018-01-07T20:23:07.110Z,1.60
2018-01-07T20:25:34.841Z,1.53
2018-01-07T20:28:02.756Z,1.93
2018-01-07T20:30:30.405Z,1.27
2018-01-07T20:32:58.135Z,1.73
2018-01-07T20:35:25.780Z,1.70
2018-01-07T20:37:53.421Z,1.90
2018-01-07T20:40:21.145Z,1.63
2018-01-07T20:42:49.805Z,1.43
2018-01-07T20:45:17.589Z,1.80
2018-01-07T20:47:46.185Z,2.90
2018-01-07T20:50:14.934Z,1.90
2018-01-07T20:52:42.591Z,2.37
2018-01-07T20:55:10.381Z,1.00
2018-01-07T20:57:38.239Z,2.00
2018-01-07T21:00:05.949Z,1.73
2018-01-07T21:02:33.499Z,2.00
2018-01-07T21:05:02.073Z,1.53
2018-01-07T21:07:30.656Z,2.20
2018-01-07T21:09:59.641Z,2.00
2018-01-07T21:12:28.167Z,2.07
2018-01-07T21:14:56.345Z,1.43
2018-01-07T21:17:24.177Z,1.80
2018-01-07T21:19:52.009Z,1.87
2018-01-07T21:22:19.670Z,1.63
2018-01-07T21:24:47.472Z,1.93
2018-01-07T21:27:15.957Z,2.00
2018-01-07T21:29:43.667Z,1.57
2018-01-07T21:32:11.250Z,2.90
2018-01-07T21:34:39.115Z,2.10
2018-01-07T21:37:06.737Z,1.33
2018-01-07T21:39:34.455Z,1.90
2018-01-07T21:42:02.187Z,2.17
2018-01-07T21:44:30.534Z,2.07
2018-01-07T21:46:58.310Z,2.33
2018-01-07T21:49:26.045Z,2.07
2018-01-07T21:51:54.638Z,2.23
2018-01-07T21:54:22.280Z,2.33
2018-01-07T21:56:51.062Z,1.73
2018-01-07T21:59:19.295Z,2.40
2018-01-07T22:01:58.736Z,2.20
2018-01-07T22:04:38.579Z,2.33
2018-01-07T22:07:06.469Z,3.07
2018-01-07T22:09:34.104Z,1.63
2018-01-07T22:12:01.836Z,2.50
2018-01-07T22:14:30.596Z,2.53
2018-01-07T22:16:58.124Z,2.23
2018-01-07T22:19:25.833Z,2.50
2018-01-07T22:21:53.483Z,3.70
2018-01-07T22:24:21.208Z,2.70
2018-01-07T22:26:48.801Z,2.47
2018-01-07T22:29:16.587Z,3.40
2018-01-07T22:31:44.142Z,3.03
2018-01-07T22:36:49.911Z,2.60
2018-01-07T22:39:17.762Z,2.53
2018-01-07T22:41:45.357Z,2.30
2018-01-07T22:44:13.834Z,3.50
2018-01-07T22:46:42.350Z,1.80
2018-01-07T22:49:10.002Z,3.30
2018-01-07T22:51:37.916Z,1.50
2018-01-07T22:54:05.783Z,2.80
2018-01-07T22:56:33.551Z,2.27
2018-01-07T22:59:01.256Z,2.57
2018-01-07T23:01:29.386Z,3.37
2018-01-07T23:03:57.904Z,3.63
2018-01-07T23:06:26.262Z,3.07
2018-01-07T23:08:53.950Z,2.30
2018-01-07T23:11:21.616Z,2.33
2018-01-07T23:13:49.297Z,3.57
2018-01-07T23:16:17.145Z,2.87
2018-01-07T23:18:44.878Z,3.50
2018-01-07T23:21:12.976Z,3.20
2018-01-07T23:23:41.447Z,3.37
2018-01-07T23:26:09.442Z,3.70
2018-01-07T23:28:36.994Z,3.53
2018-01-07T23:31:05.468Z,3.47
2018-01-07T23:33:33.933Z,3.13
2018-01-07T23:36:01.634Z,3.20
2018-01-07T23:38:29.290Z,3.73
2018-01-07T23:40:57.095Z,3.77
2018-01-07T23:43:24.847Z,3.50
2018-01-07T23:45:52.577Z,3.80
2018-01-07T23:48:21.062Z,3.20
2018-01-07T23:50:50.078Z,3.20
2018-01-07T23:53:17.935Z,3.20
2018-01-07T23:55:45.627Z,4.00
2018-01-07T23:58:13.347Z,3.57
